createdAt,value
2022-08-04T08:59:39.005Z,1007.55
2022-08-04T09:00:38.997Z,1007.50
2022-08-04T09:01:39.059Z,1007.50
2022-08-04T09:02:38.957Z,1007.55
2022-08-04T09:03:38.959Z,1007.58
2022-08-04T09:04:38.936Z,1007.53
2022-08-04T09:05:38.920Z,1007.52
2022-08-04T09:06:39.709Z,1007.51
2022-08-04T09:07:39.774Z,1007.55
2022-08-04T09:08:38.903Z,1007.58
2022-08-04T09:09:38.891Z,1007.49
2022-08-04T09:10:38.851Z,1007.49
2022-08-04T09:11:38.870Z,1007.51
2022-08-04T09:12:38.907Z,1007.55
2022-08-04T09:13:38.854Z,1007.55
2022-08-04T09:14:38.797Z,1007.56
2022-08-04T09:15:38.833Z,1007.55
2022-08-04T09:16:38.775Z,1007.57
2022-08-04T09:17:38.764Z,1007.58
2022-08-04T09:18:38.789Z,1007.62
2022-08-04T09:19:39.527Z,1007.55
2022-08-04T09:20:38.739Z,1007.54
2022-08-04T09:21:38.729Z,1007.54
2022-08-04T09:22:38.701Z,1007.58
2022-08-04T09:23:38.700Z,1007.61
2022-08-04T09:24:38.695Z,1007.60
2022-08-04T09:25:38.664Z,1007.54
2022-08-04T09:26:38.664Z,1007.52
2022-08-04T09:27:38.654Z,1007.53
2022-08-04T09:28:53.596Z,1007.51
2022-08-04T09:29:39.728Z,1007.49
2022-08-04T09:30:38.602Z,1007.53
2022-08-04T09:31:52.923Z,1007.51
2022-08-04T09:32:39.583Z,1007.53
2022-08-04T09:33:44.553Z,1007.51
2022-08-04T09:34:39.541Z,1007.55
2022-08-04T09:35:38.673Z,1007.50
2022-08-04T09:36:38.521Z,1007.52
2022-08-04T09:37:45.700Z,1007.50
2022-08-04T09:38:39.517Z,1007.54
2022-08-04T09:39:38.534Z,1007.53
2022-08-04T09:40:53.277Z,1007.53
2022-08-04T09:41:49.376Z,1007.48
2022-08-04T09:42:39.445Z,1007.53
2022-08-04T09:43:59.011Z,1007.49
2022-08-04T09:44:51.263Z,1007.54
2022-08-04T09:45:42.464Z,1007.55
2022-08-04T09:46:38.417Z,1007.58
2022-08-04T09:47:40.283Z,1007.53
2022-08-04T09:48:38.367Z,1007.54
2022-08-04T09:49:38.368Z,1007.55
2022-08-04T09:50:38.364Z,1007.53
2022-08-04T09:51:58.295Z,1007.53
2022-08-04T09:52:39.364Z,1007.53
2022-08-04T09:53:38.323Z,1007.55
2022-08-04T09:54:38.291Z,1007.55
2022-08-04T09:55:38.301Z,1007.58
2022-08-04T09:56:39.269Z,1007.57
2022-08-04T09:57:38.261Z,1007.53
2022-08-04T09:58:38.368Z,1007.48
2022-08-04T09:59:38.234Z,1007.43
2022-08-04T10:00:41.185Z,1007.47
2022-08-04T10:01:38.227Z,1007.46
2022-08-04T10:02:38.271Z,1007.45
2022-08-04T10:03:38.335Z,1007.51
2022-08-04T10:04:38.166Z,1007.48
2022-08-04T10:05:38.158Z,1007.42
2022-08-04T10:06:38.158Z,1007.45
2022-08-04T10:07:38.137Z,1007.45
2022-08-04T10:08:38.131Z,1007.46
2022-08-04T10:09:38.150Z,1007.42
2022-08-04T10:10:38.088Z,1007.45
2022-08-04T10:11:54.432Z,1007.44
2022-08-04T10:12:39.080Z,1007.38
2022-08-04T10:13:38.060Z,1007.40
2022-08-04T10:14:38.053Z,1007.41
2022-08-04T10:15:38.186Z,1007.40
2022-08-04T10:16:38.021Z,1007.39
2022-08-04T10:17:38.011Z,1007.39
2022-08-04T10:18:39.017Z,1007.38
2022-08-04T10:19:37.987Z,1007.40
2022-08-04T10:20:45.835Z,1007.40
2022-08-04T10:21:50.671Z,1007.35
2022-08-04T10:22:55.522Z,1007.33
2022-08-04T10:23:55.829Z,1007.31
2022-08-04T10:24:38.920Z,1007.28
2022-08-04T10:26:05.738Z,1007.31
2022-08-04T10:26:38.911Z,1007.31
2022-08-04T10:27:37.997Z,1007.29
2022-08-04T10:28:37.880Z,1007.31
2022-08-04T10:29:37.872Z,1007.25
2022-08-04T10:30:37.857Z,1007.30
2022-08-04T10:31:37.837Z,1007.30
2022-08-04T10:32:42.614Z,1007.25
2022-08-04T10:33:38.827Z,1007.31
2022-08-04T10:34:37.805Z,1007.29
2022-08-04T10:35:37.802Z,1007.32
2022-08-04T10:36:37.773Z,1007.26
2022-08-04T10:37:59.729Z,1007.25
2022-08-04T10:38:38.793Z,1007.26
2022-08-04T10:39:41.958Z,1007.27
2022-08-04T10:40:38.736Z,1007.26
2022-08-04T10:41:37.751Z,1007.21
2022-08-04T10:42:37.698Z,1007.17
2022-08-04T10:43:37.707Z,1007.16
2022-08-04T10:44:42.124Z,1007.14
2022-08-04T10:45:38.665Z,1007.17
2022-08-04T10:46:37.660Z,1007.09
2022-08-04T10:47:37.660Z,1007.13
2022-08-04T10:48:37.619Z,1007.09
2022-08-04T10:49:37.615Z,1007.09
2022-08-04T10:50:37.611Z,1007.06
2022-08-04T10:51:57.310Z,1007.07
2022-08-04T10:52:38.655Z,1007.03
2022-08-04T10:53:37.580Z,1007.04
2022-08-04T10:54:37.549Z,1007.06
2022-08-04T10:56:07.083Z,1007.03
2022-08-04T10:56:38.523Z,1007.04
2022-08-04T10:57:37.530Z,1007.04
2022-08-04T10:58:47.650Z,1007.04
2022-08-04T10:59:38.491Z,1007.02
2022-08-04T11:00:37.495Z,1007.04
2022-08-04T11:02:01.826Z,1007.08
2022-08-04T11:02:38.482Z,1007.08
2022-08-04T11:03:37.457Z,1007.06
2022-08-04T11:04:37.436Z,1007.09
2022-08-04T11:05:44.105Z,1007.10
2022-08-04T11:06:38.451Z,1007.10
2022-08-04T11:07:37.394Z,1007.07
2022-08-04T11:08:37.412Z,1007.03
2022-08-04T11:09:37.381Z,1007.05
2022-08-04T11:10:37.348Z,1007.01
2022-08-04T11:12:00.861Z,1007.05
2022-08-04T11:12:38.329Z,1007.08
2022-08-04T11:13:37.319Z,1007.04
2022-08-04T11:14:37.313Z,1007.09
2022-08-04T11:15:37.293Z,1007.08
2022-08-04T11:16:37.323Z,1007.11
2022-08-04T11:17:37.313Z,1007.13
2022-08-04T11:18:37.250Z,1007.09
2022-08-04T11:19:42.626Z,1007.07
2022-08-04T11:20:38.283Z,1007.04
2022-08-04T11:21:37.234Z,1007.04
2022-08-04T11:22:37.193Z,1007.10
2022-08-04T11:23:37.212Z,1007.09
2022-08-04T11:24:37.173Z,1007.02
2022-08-04T11:25:37.164Z,1007.00
2022-08-04T11:26:37.168Z,1007.02
2022-08-04T11:27:37.144Z,1007.06
2022-08-04T11:28:37.159Z,1007.02
2022-08-04T11:29:37.148Z,1007.03
2022-08-04T11:30:37.098Z,1007.03
2022-08-04T11:31:37.110Z,1007.02
2022-08-04T11:32:37.093Z,1007.07
2022-08-04T11:33:37.097Z,1007.04
2022-08-04T11:34:37.072Z,1007.02
2022-08-04T11:35:37.063Z,1006.93
2022-08-04T11:36:37.033Z,1006.94
2022-08-04T11:37:37.021Z,1007.03
2022-08-04T11:38:37.014Z,1006.92
2022-08-04T11:39:37.207Z,1006.91
2022-08-04T11:40:36.995Z,1006.95
2022-08-04T11:41:36.983Z,1006.94
2022-08-04T11:42:36.954Z,1007.02
2022-08-04T11:43:56.459Z,1007.01
2022-08-04T11:44:37.956Z,1007.02
2022-08-04T11:45:36.923Z,1006.99
2022-08-04T11:46:36.923Z,1006.97
2022-08-04T11:47:36.895Z,1007.05
2022-08-04T11:48:36.892Z,1007.03
2022-08-04T11:49:57.472Z,1007.03
2022-08-04T11:50:37.856Z,1007.05
2022-08-04T11:51:36.850Z,1007.00
2022-08-04T11:52:36.849Z,1007.07
2022-08-04T11:53:37.064Z,1007.03
2022-08-04T11:54:36.800Z,1007.03
2022-08-04T11:56:07.462Z,1007.06
2022-08-04T11:56:38.083Z,1007.03
2022-08-04T11:57:36.826Z,1007.08
2022-08-04T11:58:36.773Z,1007.12
2022-08-04T11:59:36.749Z,1007.17
2022-08-04T12:00:36.747Z,1007.15
2022-08-04T12:01:36.778Z,1007.16
2022-08-04T12:02:36.780Z,1007.18
2022-08-04T12:03:37.470Z,1007.10
2022-08-04T12:04:36.685Z,1007.15
2022-08-04T12:05:37.863Z,1007.10
2022-08-04T12:06:36.670Z,1007.09
2022-08-04T12:07:41.223Z,1007.14
2022-08-04T12:08:37.671Z,1007.15
2022-08-04T12:09:36.641Z,1007.10
2022-08-04T12:10:41.179Z,1007.12
2022-08-04T12:11:37.645Z,1007.19
2022-08-04T12:12:36.610Z,1007.16
2022-08-04T12:13:36.678Z,1007.15
2022-08-04T12:14:36.582Z,1007.16
2022-08-04T12:15:36.576Z,1007.19
2022-08-04T12:16:36.558Z,1007.22
2022-08-04T12:17:52.588Z,1007.20
2022-08-04T12:18:37.648Z,1007.11
2022-08-04T12:20:04.603Z,1007.17
2022-08-04T12:20:41.215Z,1007.22
2022-08-04T12:21:36.473Z,1007.18
2022-08-04T12:22:36.487Z,1007.12
2022-08-04T12:23:36.466Z,1007.04
2022-08-04T12:24:36.574Z,1007.11
2022-08-04T12:25:36.433Z,1007.09
2022-08-04T12:26:36.428Z,1007.12
2022-08-04T12:27:36.399Z,1007.10
2022-08-04T12:28:59.658Z,1007.12
2022-08-04T12:29:37.430Z,1007.15
2022-08-04T12:30:58.210Z,1007.13
2022-08-04T12:31:37.370Z,1007.14
2022-08-04T12:32:36.338Z,1007.19
2022-08-04T12:34:02.744Z,1007.15
2022-08-04T12:34:37.332Z,1007.21
2022-08-04T12:35:36.331Z,1007.16
2022-08-04T12:36:36.313Z,1007.19
2022-08-04T12:37:36.296Z,1007.21
2022-08-04T12:38:36.273Z,1007.20
2022-08-04T12:39:36.323Z,1007.20
2022-08-04T12:40:37.375Z,1007.07
2022-08-04T12:41:36.290Z,1007.14
2022-08-04T12:42:36.229Z,1007.10
2022-08-04T12:43:36.224Z,1007.17
2022-08-04T12:44:38.577Z,1007.11
2022-08-04T12:45:36.185Z,1007.12
2022-08-04T12:46:36.307Z,1007.17
2022-08-04T12:47:36.622Z,1007.18
2022-08-04T12:48:36.168Z,1007.15
2022-08-04T12:49:36.150Z,1007.13
2022-08-04T12:50:36.127Z,1007.09
2022-08-04T12:52:06.996Z,1007.07
2022-08-04T12:53:00.436Z,1007.02
2022-08-04T12:53:50.590Z,1007.02
2022-08-04T12:54:37.101Z,1007.02
2022-08-04T12:56:59.093Z,1007.08
2022-08-04T12:57:03.790Z,1007.01
2022-08-04T12:58:03.801Z,1007.04
2022-08-04T12:59:03.773Z,1006.99
2022-08-04T13:00:03.738Z,1006.94
2022-08-04T13:02:38.572Z,1006.97
2022-08-04T13:02:43.385Z,1006.93
2022-08-04T13:03:43.313Z,1007.00
2022-08-04T13:04:51.502Z,1006.90
2022-08-04T13:05:44.272Z,1006.98
2022-08-04T13:09:01.045Z,1006.92
2022-08-04T13:09:05.755Z,1006.82
2022-08-04T13:10:56.107Z,1006.93
2022-08-04T13:11:05.740Z,1006.85
2022-08-04T13:12:17.660Z,1006.89
2022-08-04T13:13:05.685Z,1006.85
2022-08-04T13:14:25.974Z,1006.85
2022-08-04T13:15:09.956Z,1006.91
2022-08-04T13:16:05.658Z,1006.83
2022-08-04T13:17:06.669Z,1006.85
2022-08-04T13:18:05.629Z,1006.87
2022-08-04T13:19:06.752Z,1006.92
2022-08-04T13:20:05.625Z,1006.88
2022-08-04T13:21:08.313Z,1006.86
2022-08-04T13:22:29.047Z,1006.91
2022-08-04T13:23:05.574Z,1006.81
2022-08-04T13:24:10.956Z,1006.80
2022-08-04T13:26:42.632Z,1006.94
2022-08-04T13:26:44.251Z,1006.98
2022-08-04T13:30:45.806Z,1006.95
2022-08-04T13:30:54.028Z,1006.95
2022-08-04T13:32:43.275Z,1007.03
2022-08-04T13:33:11.917Z,1006.97
2022-08-04T13:33:51.099Z,1006.85
2022-08-04T13:34:52.691Z,1006.87
2022-08-04T13:35:54.365Z,1006.85
2022-08-04T13:38:07.592Z,1006.84
2022-08-04T13:38:13.058Z,1006.79
2022-08-04T13:39:13.107Z,1006.78
2022-08-04T13:40:13.181Z,1006.78
2022-08-04T13:41:13.018Z,1006.76
2022-08-04T13:42:13.031Z,1006.72
2022-08-04T13:43:47.911Z,1006.74
2022-08-04T13:44:18.384Z,1006.87
2022-08-04T13:45:14.016Z,1006.82
2022-08-04T13:46:12.982Z,1006.79
2022-08-04T13:47:14.800Z,1006.89
2022-08-04T13:48:32.631Z,1006.81
2022-08-04T13:49:37.523Z,1006.86
2022-08-04T13:50:14.036Z,1006.78
2022-08-04T13:51:12.912Z,1006.82
2022-08-04T13:52:15.118Z,1006.77
2022-08-04T13:53:12.883Z,1006.82
2022-08-04T13:54:12.886Z,1006.79
2022-08-04T13:55:12.870Z,1006.96
2022-08-04T13:56:12.867Z,1006.82
2022-08-04T13:57:12.850Z,1006.85
2022-08-04T13:58:12.825Z,1006.88
2022-08-04T13:59:13.533Z,1006.89
2022-08-04T14:00:12.823Z,1006.90
2022-08-04T14:01:12.847Z,1006.93
2022-08-04T14:02:12.795Z,1006.99
2022-08-04T14:03:22.945Z,1007.13
2022-08-04T14:04:13.749Z,1007.26
2022-08-04T14:05:18.800Z,1007.48
2022-08-04T14:06:13.774Z,1007.27
2022-08-04T14:07:17.722Z,1007.55
2022-08-04T14:08:13.700Z,1007.48
2022-08-04T14:09:12.705Z,1007.60
2022-08-04T14:10:12.684Z,1007.62
2022-08-04T14:12:06.631Z,1007.62
2022-08-04T14:12:38.119Z,1007.72
2022-08-04T14:13:13.915Z,1007.69
2022-08-04T14:14:12.648Z,1007.71
2022-08-04T14:15:12.628Z,1007.80
2022-08-04T14:16:12.604Z,1007.87
2022-08-04T14:17:30.104Z,1007.87
2022-08-04T14:18:13.583Z,1007.93
2022-08-04T14:19:12.565Z,1007.99
2022-08-04T14:20:12.572Z,1007.89
2022-08-04T14:21:12.543Z,1007.87
2022-08-04T14:22:15.083Z,1007.94
2022-08-04T14:24:04.281Z,1008.06
2022-08-04T14:24:14.947Z,1008.22
2022-08-04T14:25:16.102Z,1007.92
2022-08-04T14:26:12.480Z,1007.94
2022-08-04T14:27:12.460Z,1007.98
2022-08-04T14:28:12.473Z,1007.92
2022-08-04T14:29:26.597Z,1008.00
2022-08-04T14:30:13.445Z,1007.91
2022-08-04T14:31:12.436Z,1007.91
2022-08-04T14:32:14.823Z,1007.97
2022-08-04T14:34:01.242Z,1008.00
2022-08-04T14:34:18.041Z,1007.94
2022-08-04T14:35:53.465Z,1008.05
2022-08-04T14:36:14.659Z,1007.98
2022-08-04T14:39:00.686Z,1008.01
2022-08-04T14:39:09.236Z,1007.97
2022-08-04T14:40:32.373Z,1008.04
2022-08-04T14:41:05.569Z,1008.10
2022-08-04T14:42:16.187Z,1008.06
2022-08-04T14:43:09.277Z,1008.02
2022-08-04T14:44:05.530Z,1007.93
2022-08-04T14:45:05.509Z,1007.90
2022-08-04T14:46:05.501Z,1008.01
2022-08-04T14:47:05.480Z,1007.91
2022-08-04T14:48:06.469Z,1007.90
2022-08-04T14:49:09.999Z,1007.97
2022-08-04T14:50:06.430Z,1007.93
2022-08-04T14:51:05.454Z,1007.99
2022-08-04T14:52:05.426Z,1008.07
2022-08-04T14:53:05.404Z,1008.06
2022-08-04T14:54:08.577Z,1008.06
2022-08-04T14:55:06.399Z,1008.09
2022-08-04T14:56:09.917Z,1008.10
2022-08-04T14:57:06.358Z,1008.07
2022-08-04T14:58:35.900Z,1008.05
2022-08-04T14:59:06.339Z,1007.98
2022-08-04T15:00:10.170Z,1007.96
2022-08-04T15:01:09.628Z,1007.90
2022-08-04T15:02:06.356Z,1007.86
2022-08-04T15:03:05.309Z,1007.75
2022-08-04T15:04:05.273Z,1007.73
2022-08-04T15:06:02.095Z,1007.70
2022-08-04T15:06:12.490Z,1007.69
2022-08-04T15:07:06.238Z,1007.81
2022-08-04T15:08:05.211Z,1007.81
2022-08-04T15:09:05.222Z,1007.81
2022-08-04T15:10:05.328Z,1007.80
2022-08-04T15:11:05.182Z,1007.86
2022-08-04T15:12:05.166Z,1007.86
2022-08-04T15:13:05.167Z,1007.88
2022-08-04T15:14:05.144Z,1007.87
2022-08-04T15:15:26.693Z,1007.89
2022-08-04T15:16:08.371Z,1007.84
2022-08-04T15:17:09.880Z,1007.84
2022-08-04T15:18:06.108Z,1007.89
2022-08-04T15:19:05.083Z,1007.91
2022-08-04T15:20:05.056Z,1007.85
2022-08-04T15:21:05.070Z,1007.86
2022-08-04T15:22:05.145Z,1007.88
2022-08-04T15:23:10.146Z,1007.84
2022-08-04T15:24:06.022Z,1007.81
2022-08-04T15:25:05.007Z,1007.79
2022-08-04T15:26:04.995Z,1007.81
2022-08-04T15:27:05.080Z,1007.82
2022-08-04T15:28:04.980Z,1007.78
2022-08-04T15:29:04.963Z,1007.81
2022-08-04T15:30:05.034Z,1007.83
2022-08-04T15:31:04.943Z,1007.89
2022-08-04T15:32:09.307Z,1007.94
2022-08-04T15:33:04.892Z,1007.88
2022-08-04T15:34:04.900Z,1007.89
2022-08-04T15:35:04.871Z,1007.92
2022-08-04T15:39:19.646Z,1007.90
2022-08-04T15:39:24.472Z,1007.83
2022-08-04T15:40:59.154Z,1007.90
2022-08-04T15:41:24.360Z,1007.84
2022-08-04T15:42:27.525Z,1007.88
2022-08-04T15:46:42.812Z,1007.92
2022-08-04T15:46:44.169Z,1007.81
2022-08-04T15:47:36.182Z,1007.84
2022-08-04T15:49:22.889Z,1007.87
2022-08-04T15:49:35.141Z,1007.73
2022-08-04T15:50:50.304Z,1007.77
2022-08-04T15:51:35.121Z,1007.73
2022-08-04T15:52:35.103Z,1007.67
2022-08-04T15:54:02.139Z,1007.72
2022-08-04T15:54:36.081Z,1007.69
2022-08-04T15:55:35.093Z,1007.67
2022-08-04T16:03:13.241Z,1007.77
2022-08-04T16:03:17.925Z,1007.72
2022-08-04T16:16:14.586Z,1007.82
2022-08-04T16:16:19.290Z,1007.98
2022-08-04T16:17:19.287Z,1008.02
2022-08-04T16:18:26.323Z,1008.05
2022-08-04T16:19:20.256Z,1007.92
2022-08-04T16:20:19.232Z,1007.92
2022-08-04T16:21:19.214Z,1007.95
2022-08-04T16:22:19.221Z,1007.88
2022-08-04T16:23:37.329Z,1007.97
2022-08-04T16:24:20.201Z,1007.96
2022-08-04T16:25:19.181Z,1007.95
2022-08-04T16:26:21.919Z,1007.89
2022-08-04T16:27:20.322Z,1007.91
2022-08-04T16:28:19.140Z,1007.90
2022-08-04T16:29:19.118Z,1007.91
2022-08-04T16:30:19.133Z,1007.93
2022-08-04T16:31:19.097Z,1008.02
2022-08-04T16:32:19.114Z,1007.94
2022-08-04T16:33:21.809Z,1007.96
2022-08-04T16:34:49.539Z,1008.05
2022-08-04T16:35:20.041Z,1008.10
2022-08-04T16:36:19.052Z,1008.07
2022-08-04T16:37:19.204Z,1008.06
2022-08-04T16:38:19.013Z,1008.14
2022-08-04T16:39:19.070Z,1008.09
2022-08-04T16:40:18.995Z,1007.98
2022-08-04T16:41:18.974Z,1008.05
2022-08-04T16:42:18.989Z,1008.05
2022-08-04T16:43:18.952Z,1008.11
2022-08-04T16:44:43.124Z,1008.10
2022-08-04T16:45:19.940Z,1008.10
2022-08-04T16:46:22.041Z,1008.14
2022-08-04T16:47:21.867Z,1008.15
2022-08-04T16:48:18.894Z,1008.14
2022-08-04T16:49:18.879Z,1008.14
2022-08-04T16:50:18.881Z,1008.11
2022-08-04T16:51:18.863Z,1008.10
2022-08-04T16:52:18.837Z,1008.14
2022-08-04T16:53:58.696Z,1008.11
2022-08-04T16:54:19.836Z,1008.07
2022-08-04T16:55:18.814Z,1008.09
2022-08-04T16:56:18.862Z,1008.20
2022-08-04T16:57:18.796Z,1008.13
2022-08-04T16:58:18.763Z,1008.12
2022-08-04T16:59:18.887Z,1008.16
2022-08-04T17:00:18.738Z,1008.17
2022-08-04T17:01:21.968Z,1008.20
2022-08-04T17:02:19.831Z,1008.25
2022-08-04T17:03:18.701Z,1008.28
2022-08-04T17:04:18.700Z,1008.37
2022-08-04T17:05:38.752Z,1008.34
2022-08-04T17:06:19.658Z,1008.35
2022-08-04T17:07:18.667Z,1008.26
2022-08-04T17:08:33.869Z,1008.21
2022-08-04T17:09:19.758Z,1008.22
2022-08-04T17:10:18.626Z,1008.26
2022-08-04T17:11:18.624Z,1008.30
2022-08-04T17:12:18.578Z,1008.38
2022-08-04T17:14:02.563Z,1008.37
2022-08-04T17:14:19.574Z,1008.37
2022-08-04T17:15:18.553Z,1008.37
2022-08-04T17:16:18.763Z,1008.34
2022-08-04T17:17:18.541Z,1008.30
2022-08-04T17:18:18.745Z,1008.25
2022-08-04T17:19:24.198Z,1008.23
2022-08-04T17:20:19.484Z,1008.30
2022-08-04T17:21:18.469Z,1008.35
2022-08-04T17:22:18.467Z,1008.50
2022-08-04T17:23:18.459Z,1008.51
2022-08-04T17:24:19.432Z,1008.46
2022-08-04T17:25:18.422Z,1008.42
2022-08-04T17:26:18.428Z,1008.41
2022-08-04T17:28:10.862Z,1008.35
2022-08-04T17:28:24.920Z,1008.33
2022-08-04T17:29:19.926Z,1008.23
2022-08-04T17:30:18.358Z,1008.22
2022-08-04T17:31:18.361Z,1008.20
2022-08-04T17:32:18.328Z,1008.15
2022-08-04T17:33:18.318Z,1008.21
2022-08-04T17:34:19.471Z,1008.21
2022-08-04T17:35:18.292Z,1008.19
2022-08-04T17:36:18.292Z,1008.20
2022-08-04T17:37:39.439Z,1008.16
2022-08-04T17:38:19.251Z,1008.19
2022-08-04T17:39:18.282Z,1008.22
2022-08-04T17:40:25.750Z,1008.25
2022-08-04T17:41:30.138Z,1008.26
2022-08-04T17:42:19.203Z,1008.22
2022-08-04T17:44:04.473Z,1008.21
2022-08-04T17:44:19.172Z,1008.20
2022-08-04T17:46:28.441Z,1008.23
2022-08-04T17:47:19.158Z,1008.27
2022-08-04T17:48:24.880Z,1008.27
2022-08-04T17:49:19.156Z,1008.22
2022-08-04T17:50:18.112Z,1008.22
2022-08-04T17:51:18.088Z,1008.21
2022-08-04T17:52:32.415Z,1008.23
2022-08-04T17:53:21.870Z,1008.13
2022-08-04T17:54:18.054Z,1008.08
2022-08-04T17:55:20.609Z,1008.15
2022-08-04T17:56:18.035Z,1008.13
2022-08-04T17:57:19.923Z,1008.17
2022-08-04T17:58:21.586Z,1008.22
2022-08-04T17:59:55.495Z,1008.21
2022-08-04T18:00:19.398Z,1008.23
2022-08-04T18:01:24.602Z,1008.24
2022-08-04T18:02:18.956Z,1008.27
2022-08-04T18:03:22.739Z,1008.28
2022-08-04T18:04:18.917Z,1008.28
2022-08-04T18:05:17.907Z,1008.28
2022-08-04T18:06:17.884Z,1008.29
2022-08-04T18:08:37.881Z,1008.36
2022-08-04T18:08:38.248Z,1008.38
2022-08-04T18:09:22.787Z,1008.39
2022-08-04T18:10:28.893Z,1008.44
2022-08-04T18:11:18.831Z,1008.47
2022-08-04T18:12:17.807Z,1008.46
2022-08-04T18:13:17.786Z,1008.48
2022-08-04T18:14:17.924Z,1008.53
2022-08-04T18:15:18.772Z,1008.57
2022-08-04T18:16:22.643Z,1008.63
2022-08-04T18:18:20.976Z,1008.67
2022-08-04T18:18:21.273Z,1008.58
2022-08-04T18:19:18.978Z,1008.49
2022-08-04T18:20:17.692Z,1008.45
2022-08-04T18:21:17.684Z,1008.47
2022-08-04T18:22:27.604Z,1008.52
2022-08-04T18:23:18.663Z,1008.62
2022-08-04T18:24:17.648Z,1008.66
2022-08-04T18:25:17.662Z,1008.72
2022-08-04T18:26:17.617Z,1008.73
2022-08-04T18:27:17.659Z,1008.73
2022-08-04T18:28:26.428Z,1008.66
2022-08-04T18:29:30.869Z,1008.62
2022-08-04T18:30:38.472Z,1008.59
2022-08-04T18:31:18.592Z,1008.57
2022-08-04T18:32:17.541Z,1008.67
2022-08-04T18:33:39.968Z,1008.70
2022-08-04T18:34:24.204Z,1008.69
2022-08-04T18:35:18.518Z,1008.70
2022-08-04T18:36:33.752Z,1008.71
2022-08-04T18:38:03.047Z,1008.77
2022-08-04T18:38:22.329Z,1008.83
2022-08-04T18:39:17.498Z,1008.85
2022-08-04T18:40:31.132Z,1008.87
2022-08-04T18:41:18.461Z,1008.91
2022-08-04T18:42:17.427Z,1008.92
2022-08-04T18:43:17.426Z,1008.87
2022-08-04T18:44:18.384Z,1008.86
2022-08-04T18:45:18.374Z,1008.83
2022-08-04T18:46:17.386Z,1008.81
2022-08-04T18:47:22.236Z,1008.85
2022-08-04T18:48:18.349Z,1008.83
2022-08-04T18:50:31.778Z,1008.86
2022-08-04T18:51:00.573Z,1008.88
2022-08-04T18:51:22.977Z,1008.84
2022-08-04T18:52:18.279Z,1008.87
2022-08-04T18:53:18.268Z,1008.90
2022-08-04T18:54:17.269Z,1008.94
2022-08-04T18:55:56.575Z,1008.94
2022-08-04T18:56:29.345Z,1008.95
2022-08-04T18:57:32.215Z,1008.97
2022-08-04T18:58:27.101Z,1008.96
2022-08-04T18:59:18.213Z,1008.94
2022-08-04T19:00:17.177Z,1008.93
2022-08-04T19:01:17.190Z,1008.96
2022-08-04T19:02:17.961Z,1008.90
2022-08-04T19:03:23.265Z,1008.95
2022-08-04T19:04:34.193Z,1008.99
2022-08-04T19:05:19.413Z,1009.00
2022-08-04T19:06:17.104Z,1008.99
2022-08-04T19:07:29.083Z,1009.11
2022-08-04T19:08:34.737Z,1009.05
2022-08-04T19:09:20.994Z,1009.06
2022-08-04T19:10:23.684Z,1009.10
2022-08-04T19:11:37.056Z,1009.12
2022-08-04T19:12:26.791Z,1009.09
2022-08-04T19:13:24.842Z,1009.12
2022-08-04T19:14:17.986Z,1009.10
2022-08-04T19:15:19.476Z,1009.06
2022-08-04T19:16:20.981Z,1009.03
2022-08-04T19:17:16.978Z,1009.04
2022-08-04T19:18:18.698Z,1009.09
2022-08-04T19:19:16.948Z,1009.11
2022-08-04T19:20:25.073Z,1009.12
2022-08-04T19:21:17.899Z,1009.17
2022-08-04T19:22:35.483Z,1009.22
2022-08-04T19:24:26.897Z,1009.19
2022-08-04T19:24:31.938Z,1009.18
2022-08-04T19:25:58.487Z,1009.20
2022-08-04T19:26:27.718Z,1009.25
2022-08-04T19:27:17.914Z,1009.23
2022-08-04T19:28:17.612Z,1009.23
2022-08-04T19:29:16.801Z,1009.28
2022-08-04T19:30:17.451Z,1009.30
2022-08-04T19:31:17.042Z,1009.33
2022-08-04T19:32:16.753Z,1009.38
2022-08-04T19:33:16.746Z,1009.36
2022-08-04T19:34:16.747Z,1009.39
2022-08-04T19:35:17.749Z,1009.41
2022-08-04T19:36:17.332Z,1009.40
2022-08-04T19:37:56.168Z,1009.45
2022-08-04T19:38:17.704Z,1009.45
2022-08-04T19:39:16.772Z,1009.44
2022-08-04T19:40:16.647Z,1009.41
2022-08-04T19:41:18.213Z,1009.41
2022-08-04T19:42:16.640Z,1009.35
2022-08-04T19:43:17.612Z,1009.34
2022-08-04T19:44:16.632Z,1009.35
2022-08-04T19:45:16.602Z,1009.37
2022-08-04T19:46:17.798Z,1009.38
2022-08-04T19:48:16.058Z,1009.45
2022-08-04T19:50:02.905Z,1009.36
2022-08-04T19:50:17.515Z,1009.36
2022-08-04T19:51:16.536Z,1009.40
2022-08-04T19:52:34.026Z,1009.37
2022-08-04T19:53:19.522Z,1009.37
2022-08-04T19:54:23.983Z,1009.37
2022-08-04T19:55:17.571Z,1009.37
2022-08-04T19:56:16.458Z,1009.38
2022-08-04T19:57:16.445Z,1009.39
2022-08-04T19:58:16.424Z,1009.45
2022-08-04T19:59:16.419Z,1009.45
2022-08-04T20:00:16.388Z,1009.47
2022-08-04T20:01:33.529Z,1009.46
2022-08-04T20:02:17.382Z,1009.47
2022-08-04T20:03:20.261Z,1009.46
2022-08-04T20:04:16.349Z,1009.48
2022-08-04T20:05:16.351Z,1009.45
2022-08-04T20:06:16.338Z,1009.45
2022-08-04T20:07:16.381Z,1009.55
2022-08-04T20:08:16.299Z,1009.57
2022-08-04T20:09:25.556Z,1009.60
2022-08-04T20:10:17.272Z,1009.58
2022-08-04T20:11:17.289Z,1009.67
2022-08-04T20:12:16.254Z,1009.71
2022-08-04T20:13:17.214Z,1009.75
2022-08-04T20:14:16.202Z,1009.79
2022-08-04T20:15:16.216Z,1009.79
2022-08-04T20:16:29.557Z,1009.82
2022-08-04T20:17:17.875Z,1009.80
2022-08-04T20:19:17.158Z,1009.74
2022-08-04T20:20:16.123Z,1009.74
2022-08-04T20:22:52.376Z,1009.72
2022-08-04T20:23:17.094Z,1009.76
2022-08-04T20:24:41.458Z,1009.76
2022-08-04T20:25:33.575Z,1009.78
2022-08-04T20:26:17.164Z,1009.78
2022-08-04T20:27:16.392Z,1009.79
2022-08-04T20:28:25.669Z,1009.74
2022-08-04T20:29:38.902Z,1009.74
2022-08-04T20:30:19.147Z,1009.71
2022-08-04T20:31:18.408Z,1009.67
2022-08-04T20:32:16.012Z,1009.71
2022-08-04T20:33:15.979Z,1009.69
2022-08-04T20:34:15.949Z,1009.70
2022-08-04T20:35:16.716Z,1009.72
2022-08-04T20:36:15.925Z,1009.73
2022-08-04T20:37:16.020Z,1009.75
2022-08-04T20:38:33.494Z,1009.72
2022-08-04T20:39:16.912Z,1009.70
2022-08-04T20:40:15.862Z,1009.71
2022-08-04T20:41:15.853Z,1009.72
2022-08-04T20:42:15.857Z,1009.73
2022-08-04T20:43:15.894Z,1009.68
2022-08-04T20:44:20.259Z,1009.72
2022-08-04T20:45:16.952Z,1009.69
2022-08-04T20:47:16.790Z,1009.73
2022-08-04T20:48:15.755Z,1009.72
2022-08-04T20:49:15.777Z,1009.69
2022-08-04T20:50:15.748Z,1009.73
2022-08-04T20:51:15.747Z,1009.73
2022-08-04T20:52:20.242Z,1009.76
2022-08-04T20:53:17.374Z,1009.79
2022-08-04T20:54:16.043Z,1009.76
2022-08-04T20:55:15.677Z,1009.77
2022-08-04T20:56:19.333Z,1009.78
2022-08-04T20:57:17.053Z,1009.76
2022-08-04T20:58:15.630Z,1009.75
2022-08-04T20:59:17.141Z,1009.72
2022-08-04T21:00:15.715Z,1009.76
2022-08-04T21:01:15.614Z,1009.71
2022-08-04T21:02:16.387Z,1009.70
2022-08-04T21:03:15.573Z,1009.70
2022-08-04T21:04:27.968Z,1009.68
2022-08-04T21:05:16.587Z,1009.74
2022-08-04T21:06:15.840Z,1009.72
2022-08-04T21:07:16.660Z,1009.72
2022-08-04T21:08:15.505Z,1009.75
2022-08-04T21:09:26.638Z,1009.78
2022-08-04T21:10:16.933Z,1009.82
2022-08-04T21:11:15.502Z,1009.78
2022-08-04T21:12:27.323Z,1009.81
2022-08-04T21:13:16.447Z,1009.87
2022-08-04T21:14:15.425Z,1009.87
2022-08-04T21:15:16.404Z,1009.88
2022-08-04T21:16:53.554Z,1009.93
2022-08-04T21:17:17.033Z,1009.87
2022-08-04T21:18:16.844Z,1009.88
2022-08-04T21:19:15.353Z,1009.88
2022-08-04T21:20:15.362Z,1009.83
2022-08-04T21:21:16.342Z,1009.83
2022-08-04T21:22:15.458Z,1009.84
2022-08-04T21:23:16.319Z,1009.87
2022-08-04T21:24:15.496Z,1009.85
2022-08-04T21:25:16.282Z,1009.84
2022-08-04T21:26:15.261Z,1009.80
2022-08-04T21:27:16.284Z,1009.80
2022-08-04T21:28:20.113Z,1009.81
2022-08-04T21:29:17.230Z,1009.84
2022-08-04T21:30:25.232Z,1009.89
2022-08-04T21:31:22.155Z,1009.91
2022-08-04T21:32:16.199Z,1009.94
2022-08-04T21:33:15.264Z,1009.96
2022-08-04T21:34:15.195Z,1010.00
2022-08-04T21:35:16.347Z,1010.04
2022-08-04T21:36:16.131Z,1010.05
2022-08-04T21:37:15.196Z,1010.05